Time;durP1;ratioP1;P1;durP2;ratioP2;P2;SDS_P1;SDS_P2;PMS_P1;PMS_P2;Temp;Humidity;BMP_temperature;BMP_pressure;BME280_temperature;BME280_humidity;BME280_pressure;Samples;Min_cycle;Max_cycle;Signal;HPM_P1;HPM_P2
2021/11/15 00:00:18;;;;;;;59.90;25.42;;;;;;;5.41;100.00;98210.69;5065442;28;20024;-93
2021/11/15 00:02:45;;;;;;;56.70;24.48;;;;;;;5.52;100.00;98237.75;5065801;28;20028;-93
2021/11/15 00:05:11;;;;;;;62.15;24.13;;;;;;;5.39;100.00;98229.28;5066363;28;20028;-91
2021/11/15 00:07:37;;;;;;;63.80;26.38;;;;;;;5.28;100.00;98225.25;5082520;28;20433;-92
2021/11/15 00:10:04;;;;;;;62.63;25.90;;;;;;;5.30;100.00;98226.91;5066413;28;20032;-92
2021/11/15 00:12:30;;;;;;;64.03;26.55;;;;;;;5.31;100.00;98214.53;5065403;28;20115;-92
2021/11/15 00:14:55;;;;;;;63.33;26.90;;;;;;;5.37;100.00;98215.22;5064877;28;20173;-92
2021/11/15 00:17:21;;;;;;;63.97;26.08;;;;;;;5.52;100.00;98213.88;5053660;28;20086;-92
2021/11/15 00:19:47;;;;;;;60.20;24.55;;;;;;;5.60;100.00;98216.31;5042077;28;20024;-90
2021/11/15 00:22:13;;;;;;;70.60;27.90;;;;;;;5.51;100.00;98214.78;5024467;28;20515;-93
2021/11/15 00:24:39;;;;;;;65.18;27.25;;;;;;;5.69;100.00;98235.44;5041062;28;20048;-92
2021/11/15 00:27:04;;;;;;;65.18;26.60;;;;;;;5.62;100.00;98209.16;5042171;28;20497;-93
2021/11/15 00:29:30;;;;;;;65.05;26.77;;;;;;;5.56;100.00;98212.88;5025194;28;20035;-92
2021/11/15 00:31:56;;;;;;;60.95;25.95;;;;;;;5.63;100.00;98238.28;5041801;28;20025;-91
2021/11/15 00:34:22;;;;;;;59.88;25.90;;;;;;;5.60;100.00;98227.75;5041255;28;20086;-91
2021/11/15 00:36:48;;;;;;;69.75;26.23;;;;;;;5.57;100.00;98222.53;5023982;28;20029;-91
2021/11/15 00:39:13;;;;;;;66.57;26.58;;;;;;;5.62;100.00;98222.41;5041331;28;20082;-92
2021/11/15 00:41:39;;;;;;;66.15;26.50;;;;;;;5.63;100.00;98214.38;5025589;28;20470;-92
2021/11/15 00:44:05;;;;;;;67.60;26.50;;;;;;;5.66;100.00;98227.56;5042429;28;20036;-92
2021/11/15 00:46:30;;;;;;;63.60;25.65;;;;;;;5.68;100.00;98225.75;5041909;28;20029;-92
2021/11/15 00:48:56;;;;;;;68.78;27.40;;;;;;;5.53;100.00;98204.13;5040813;28;20033;-93
2021/11/15 00:51:29;;;;;;;66.35;28.33;;;;;;;5.54;100.00;98211.19;5041189;28;20025;-92
2021/11/15 00:53:56;;;;;;;74.35;28.30;;;;;;;5.54;100.00;98206.72;5040378;28;20411;-91
2021/11/15 00:56:22;;;;;;;71.45;28.65;;;;;;;5.51;100.00;98214.78;5039812;28;20099;-92
2021/11/15 00:58:48;;;;;;;66.30;26.20;;;;;;;5.43;100.00;98214.16;5049055;28;20036;-93
2021/11/15 01:01:14;;;;;;;61.65;26.67;;;;;;;5.50;100.00;98236.94;5065158;28;20073;-91
2021/11/15 01:03:39;;;;;;;67.93;26.30;;;;;;;5.34;100.00;98220.63;5064709;28;20028;-92
2021/11/15 01:06:05;;;;;;;59.85;23.70;;;;;;;5.32;100.00;98221.59;5065158;28;20028;-92
2021/11/15 01:08:31;;;;;;;56.20;23.63;;;;;;;5.21;100.00;98207.75;5064801;28;20031;-91
2021/11/15 01:10:56;;;;;;;58.22;24.13;;;;;;;5.32;100.00;98226.91;5063063;28;20023;-91
2021/11/15 01:13:23;;;;;;;56.00;23.13;;;;;;;5.41;100.00;98235.41;5063990;28;20525;-91
2021/11/15 01:15:49;;;;;;;54.13;23.58;;;;;;;5.26;100.00;98219.13;5063588;28;20047;-92
2021/11/15 01:18:15;;;;;;;61.05;23.73;;;;;;;5.31;100.00;98241.06;5055468;28;20123;-91
2021/11/15 01:20:41;;;;;;;59.97;25.85;;;;;;;5.29;100.00;98234.94;5064056;28;20051;-92
2021/11/15 01:23:07;;;;;;;56.42;25.17;;;;;;;5.37;100.00;98248.81;5063904;28;20024;-91
2021/11/15 01:25:35;;;;;;;67.03;26.05;;;;;;;5.22;100.00;98225.41;5048331;28;20028;-93
2021/11/15 01:28:00;;;;;;;72.53;27.10;;;;;;;5.28;100.00;98227.88;5044342;28;20032;-92
2021/11/15 01:30:26;;;;;;;67.07;26.23;;;;;;;5.32;100.00;98227.72;5059836;28;20051;-93
2021/11/15 01:32:53;;;;;;;70.40;26.95;;;;;;;5.26;100.00;98221.78;5060323;28;20523;-91
2021/11/15 01:35:20;;;;;;;71.97;26.85;;;;;;;5.42;100.00;98238.94;5059792;28;20021;-92
2021/11/15 01:37:46;;;;;;;70.82;26.17;;;;;;;5.42;100.00;98242.47;5061052;28;20025;-93
2021/11/15 01:40:16;;;;;;;69.47;25.65;;;;;;;5.27;100.00;98213.75;5063955;28;20023;-92
2021/11/15 01:42:43;;;;;;;70.68;26.35;;;;;;;5.41;100.00;98243.38;5056877;28;20028;-92
2021/11/15 01:45:10;;;;;;;69.00;25.63;;;;;;;5.35;100.00;98222.34;5040717;28;20473;-92
2021/11/15 01:47:37;;;;;;;68.72;26.67;;;;;;;5.42;100.00;98229.19;5049603;28;20036;-91
2021/11/15 01:50:04;;;;;;;72.13;26.00;;;;;;;5.34;100.00;98225.06;5060060;28;20041;-93
2021/11/15 01:52:30;;;;;;;76.03;27.85;;;;;;;5.39;100.00;98226.66;5060518;28;20029;-92
2021/11/15 01:58:18;;;;;;;75.00;27.20;;;;;;;5.38;100.00;98235.50;5078720;28;20039;-90
2021/11/15 02:00:48;;;;;;;63.13;24.38;;;;;;;5.49;100.00;98237.84;5060716;28;20059;-93
2021/11/15 02:03:14;;;;;;;68.47;24.92;;;;;;;5.28;100.00;98214.63;5043511;28;20058;-93
2021/11/15 02:05:41;;;;;;;61.83;23.52;;;;;;;5.44;100.00;98245.09;5059920;28;20036;-92
2021/11/15 02:08:24;;;;;;;60.33;24.05;;;;;;;5.33;100.00;98223.31;5060099;28;20033;-91
2021/11/15 02:10:50;;;;;;;61.63;23.50;;;;;;;5.22;100.00;98221.00;5060852;28;20048;-93
2021/11/15 02:13:17;;;;;;;56.63;23.30;;;;;;;5.32;100.00;98224.25;5043973;28;20029;-92
2021/11/15 02:15:43;;;;;;;56.78;22.65;;;;;;;5.29;100.00;98224.34;5059099;28;20076;-91
2021/11/15 02:18:09;;;;;;;57.05;22.17;;;;;;;5.45;100.00;98241.50;5058490;28;20029;-77
2021/11/15 02:21:05;;;;;;;55.30;21.70;;;;;;;5.37;100.00;98239.09;5062460;28;20036;-93
2021/11/15 02:23:38;;;;;;;55.40;22.58;;;;;;;5.26;100.00;98237.69;5057099;28;20513;-92
2021/11/15 02:26:06;;;;;;;48.55;20.40;;;;;;;5.26;100.00;98232.38;5059260;28;20123;-92
2021/11/15 02:28:38;;;;;;;52.47;20.38;;;;;;;5.30;100.00;98223.41;5059938;28;20021;-92
2021/11/15 02:31:05;;;;;;;55.63;22.48;;;;;;;5.24;100.00;98223.59;5059047;28;20048;-93
2021/11/15 02:33:31;;;;;;;58.78;22.42;;;;;;;5.20;100.00;98237.88;5059346;28;20037;-93
2021/11/15 02:35:58;;;;;;;57.92;23.55;;;;;;;5.16;100.00;98225.59;5059284;28;20051;-93
2021/11/15 02:38:24;;;;;;;61.00;24.30;;;;;;;5.32;100.00;98242.81;5060067;28;20466;-93
2021/11/15 02:40:49;;;;;;;54.83;23.23;;;;;;;5.21;100.00;98237.81;5059433;28;20024;-92
2021/11/15 02:43:15;;;;;;;56.88;25.35;;;;;;;5.18;100.00;98250.28;5058234;28;20020;-91
2021/11/15 02:45:50;;;;;;;59.50;24.95;;;;;;;5.17;100.00;98241.44;5059504;28;20032;-92
2021/11/15 02:48:21;;;;;;;56.92;24.33;;;;;;;5.23;100.00;98237.78;5040108;28;20069;-93
2021/11/15 02:50:47;;;;;;;54.53;20.77;;;;;;;5.21;100.00;98256.38;5055379;28;20032;-91
2021/11/15 02:53:13;;;;;;;52.97;21.98;;;;;;;5.13;100.00;98255.75;5074509;28;20051;-91
2021/11/15 02:55:40;;;;;;;48.72;20.95;;;;;;;5.18;100.00;98260.88;5051091;28;20498;-92
2021/11/15 02:58:09;;;;;;;56.53;22.13;;;;;;;5.15;100.00;98255.69;5059436;28;20067;-92
2021/11/15 03:01:13;;;;;;;54.47;22.67;;;;;;;5.21;100.00;98276.72;5054714;28;20028;-92
2021/11/15 03:03:40;;;;;;;51.58;21.58;;;;;;;5.07;100.00;98269.16;5039018;28;20024;-92
2021/11/15 03:06:05;;;;;;;49.50;21.67;;;;;;;4.93;100.00;98253.66;5056348;28;20028;-93
2021/11/15 03:08:31;;;;;;;51.90;22.98;;;;;;;4.86;100.00;98269.78;5055886;28;20056;-92
2021/11/15 03:11:00;;;;;;;49.83;20.75;;;;;;;4.81;100.00;98248.69;5056660;28;20029;-92
2021/11/15 03:13:29;;;;;;;54.92;21.20;;;;;;;4.75;100.00;98240.91;5039565;28;20025;-93
2021/11/15 03:15:55;;;;;;;55.75;22.77;;;;;;;4.85;100.00;98279.50;5056830;28;20056;-92
2021/11/15 03:18:26;;;;;;;54.40;23.48;;;;;;;4.64;100.00;98256.25;5056771;28;20029;-92
2021/11/15 03:21:02;;;;;;;48.70;20.88;;;;;;;4.80;100.00;98277.88;5055116;28;20091;-92
2021/11/15 03:23:29;;;;;;;70.60;30.75;;;;;;;4.77;100.00;98276.19;5057008;28;20116;-93
2021/11/15 03:25:56;;;;;;;51.67;21.25;;;;;;;4.83;100.00;98273.34;5040824;28;20090;-92
2021/11/15 03:28:25;;;;;;;52.83;21.65;;;;;;;4.77;100.00;98239.06;5055288;28;20059;-93
2021/11/15 03:30:56;;;;;;;53.42;21.55;;;;;;;4.89;100.00;98262.59;5056252;28;20047;-94
2021/11/15 03:33:29;;;;;;;50.22;21.52;;;;;;;4.99;100.00;98267.63;5056336;28;20508;-91
2021/11/15 03:35:54;;;;;;;50.67;20.77;;;;;;;4.79;100.00;98253.19;5056722;28;20511;-91
2021/11/15 03:38:20;;;;;;;53.22;20.23;;;;;;;4.70;100.00;98268.44;5056598;28;20032;-93
2021/11/15 03:40:46;;;;;;;43.75;18.98;;;;;;;4.52;100.00;98256.56;5056929;28;20025;-90
2021/11/15 03:43:12;;;;;;;43.97;18.90;;;;;;;4.59;100.00;98258.13;5055915;28;20025;-91
2021/11/15 03:45:39;;;;;;;45.80;18.92;;;;;;;4.76;100.00;98284.19;5056078;28;20120;-91
2021/11/15 03:48:06;;;;;;;47.65;18.65;;;;;;;4.83;100.00;98283.09;5057236;28;20090;-92
2021/11/15 03:50:32;;;;;;;44.10;17.27;;;;;;;4.89;100.00;98270.53;5056219;28;20036;-92
2021/11/15 03:52:59;;;;;;;36.65;15.80;;;;;;;4.74;100.00;98264.78;5056208;28;20021;-93
2021/11/15 03:55:28;;;;;;;42.80;17.73;;;;;;;4.80;100.00;98270.78;5039214;28;20055;-93
2021/11/15 03:57:54;;;;;;;38.30;15.52;;;;;;;4.93;100.00;98285.44;5054766;28;20119;-92
2021/11/15 04:00:23;;;;;;;35.10;16.23;;;;;;;5.02;100.00;98280.78;5055908;28;20025;-92
2021/11/15 04:02:53;;;;;;;38.72;16.90;;;;;;;5.02;100.00;98280.78;5054932;28;20037;-93
2021/11/15 04:05:31;;;;;;;33.65;15.90;;;;;;;5.03;100.00;98282.53;5055841;28;20024;-91
2021/11/15 04:07:58;;;;;;;40.55;16.77;;;;;;;4.87;100.00;98275.03;5059775;28;20165;-92
2021/11/15 04:10:29;;;;;;;36.50;16.40;;;;;;;4.69;100.00;98242.84;5056596;28;20429;-91
2021/11/15 04:13:09;;;;;;;44.33;18.20;;;;;;;4.85;100.00;98275.97;5067883;28;20028;-92
2021/11/15 04:15:35;;;;;;;40.55;18.38;;;;;;;4.75;100.00;98272.72;5059010;28;20275;-92
2021/11/15 04:18:02;;;;;;;36.53;15.35;;;;;;;4.62;100.00;98250.09;5065047;28;20056;-91
2021/11/15 04:20:28;;;;;;;45.22;17.23;;;;;;;4.72;100.00;98261.31;5065653;28;20447;-92
2021/11/15 04:23:06;;;;;;;48.30;18.70;;;;;;;4.94;100.00;98286.31;5065966;28;20042;-92
2021/11/15 04:25:31;;;;;;;40.22;18.08;;;;;;;4.70;100.00;98264.03;5064993;28;20023;-94
2021/11/15 04:27:58;;;;;;;36.63;16.67;;;;;;;4.66;100.00;98286.22;5065152;28;20560;-91
2021/11/15 04:30:24;;;;;;;39.20;16.70;;;;;;;4.58;100.00;98277.59;5065440;28;20035;-91
2021/11/15 04:35:56;;;;;;;43.50;17.02;;;;;;;4.70;100.00;98274.63;5612900;22;20060;-91
2021/11/15 04:38:22;;;;;;;35.40;16.50;;;;;;;4.69;100.00;98258.75;5045372;28;20086;-91
2021/11/15 04:40:48;;;;;;;37.72;16.45;;;;;;;4.82;100.00;98292.84;5062122;28;20032;-89
2021/11/15 04:43:14;;;;;;;38.35;16.35;;;;;;;4.58;100.00;98277.59;5061131;28;20032;-91
2021/11/15 04:45:40;;;;;;;33.38;15.60;;;;;;;4.48;100.00;98270.81;5048020;28;20031;-90
2021/11/15 04:48:06;;;;;;;34.92;16.42;;;;;;;4.58;100.00;98295.28;5064629;28;20092;-92
2021/11/15 04:50:32;;;;;;;39.38;18.15;;;;;;;4.38;100.00;98262.22;5067635;28;20119;-93
2021/11/15 04:52:58;;;;;;;37.50;17.50;;;;;;;4.58;100.00;98295.28;5064414;28;20019;-93
2021/11/15 04:55:25;;;;;;;40.28;18.20;;;;;;;4.71;100.00;98301.97;5063842;28;20024;-91
2021/11/15 04:57:52;;;;;;;38.08;18.33;;;;;;;4.68;100.00;98294.97;5045908;28;20091;-91
2021/11/15 05:00:21;;;;;;;46.47;19.77;;;;;;;4.40;100.00;98270.13;5043720;28;20028;-91
2021/11/15 05:03:01;;;;;;;43.70;19.23;;;;;;;4.55;100.00;98301.53;5063542;28;20028;-90
2021/11/15 05:05:26;;;;;;;45.63;19.60;;;;;;;4.60;100.00;98299.63;5055220;28;20094;-91
2021/11/15 05:07:56;;;;;;;45.40;19.63;;;;;;;4.57;100.00;98307.66;5050091;28;20067;-91
2021/11/15 05:10:27;;;;;;;43.35;18.33;;;;;;;4.54;100.00;98309.50;5048889;28;20028;-90
2021/11/15 05:13:02;;;;;;;43.20;19.13;;;;;;;4.61;100.00;98325.22;5030606;28;20033;-89
2021/11/15 05:15:30;;;;;;;40.75;18.20;;;;;;;4.61;100.00;98301.38;5061026;28;20099;-90
2021/11/15 05:17:55;;;;;;;40.70;18.00;;;;;;;4.65;100.00;98310.94;5055114;28;20108;-91
2021/11/15 05:20:22;;;;;;;36.15;17.48;;;;;;;4.80;100.00;98337.03;5060098;28;20510;-90
2021/11/15 05:22:48;;;;;;;40.17;17.45;;;;;;;4.71;100.00;98339.94;5064557;28;20081;-90
2021/11/15 05:25:15;;;;;;;36.80;18.42;;;;;;;4.67;100.00;98324.19;5064257;28;20497;-90
2021/11/15 05:27:41;;;;;;;44.13;18.20;;;;;;;4.81;100.00;98352.03;5063330;28;20110;-91
2021/11/15 05:30:09;;;;;;;36.45;17.50;;;;;;;4.71;100.00;98336.41;5064338;28;20044;-91
2021/11/15 05:32:35;;;;;;;43.28;19.33;;;;;;;4.29;100.00;98303.94;5069115;28;20089;-91
2021/11/15 05:35:02;;;;;;;45.95;21.60;;;;;;;4.62;100.00;98345.47;5069018;28;20029;-91
2021/11/15 05:37:35;;;;;;;49.63;20.95;;;;;;;4.64;100.00;98341.03;5051229;28;20044;-90
2021/11/15 05:40:05;;;;;;;42.00;19.13;;;;;;;4.64;100.00;98341.03;5048488;28;20104;-86
2021/11/15 05:42:34;;;;;;;39.67;19.25;;;;;;;4.60;100.00;98355.25;5042201;28;20036;-89
2021/11/15 05:45:00;;;;;;;44.22;19.30;;;;;;;4.35;100.00;98339.09;5028816;28;20029;-82
2021/11/15 05:47:26;;;;;;;43.95;20.38;;;;;;;4.39;100.00;98342.53;5055782;28;20420;-92
2021/11/15 05:49:52;;;;;;;40.17;19.50;;;;;;;4.42;100.00;98346.88;5043508;28;20028;-91
2021/11/15 05:52:22;;;;;;;44.03;20.52;;;;;;;4.52;100.00;98362.53;5044714;28;20077;-93
2021/11/15 05:54:48;;;;;;;43.85;18.80;;;;;;;4.50;100.00;98361.69;5045346;28;20029;-93
2021/11/15 05:57:14;;;;;;;44.00;18.90;;;;;;;4.48;100.00;98355.56;5081473;28;20032;-91
2021/11/15 05:59:39;;;;;;;43.00;19.42;;;;;;;4.59;100.00;98373.81;5055618;28;20039;-91
2021/11/15 06:02:05;;;;;;;42.10;20.27;;;;;;;4.40;100.00;98360.16;5050699;28;20029;-90
2021/11/15 06:04:34;;;;;;;48.97;21.17;;;;;;;4.19;100.00;98334.19;5048206;28;20024;-89
2021/11/15 06:07:03;;;;;;;46.72;21.35;;;;;;;4.26;100.00;98349.03;5060328;28;20032;-91
2021/11/15 06:09:29;;;;;;;62.55;27.35;;;;;;;4.29;100.00;98355.13;5058246;28;20036;-92
2021/11/15 06:11:56;;;;;;;51.10;24.42;;;;;;;4.22;100.00;98335.00;5054863;28;20016;-91
2021/11/15 06:14:22;;;;;;;53.03;24.00;;;;;;;4.45;100.00;98347.69;5043940;28;20872;-90
2021/11/15 06:16:47;;;;;;;51.65;21.17;;;;;;;4.72;100.00;98392.03;5062149;28;20053;-91
2021/11/15 06:19:13;;;;;;;48.78;21.25;;;;;;;4.63;100.00;98363.13;5058465;28;20035;-89
2021/11/15 06:21:39;;;;;;;58.08;23.33;;;;;;;4.67;100.00;98361.28;5058224;28;20048;-89
2021/11/15 06:24:05;;;;;;;55.22;26.30;;;;;;;4.94;100.00;98405.59;5058659;28;20118;-86
2021/11/15 06:26:50;;;;;;;51.92;23.10;;;;;;;4.54;100.00;98342.16;5047408;28;20372;-92
2021/11/15 06:29:16;;;;;;;53.40;23.63;;;;;;;4.56;100.00;98350.94;5025283;28;20401;-90
2021/11/15 06:31:42;;;;;;;60.13;25.38;;;;;;;4.69;100.00;98383.28;5061312;28;20032;-90
2021/11/15 06:34:07;;;;;;;50.88;22.92;;;;;;;4.74;100.00;98389.31;5061972;28;20110;-90
2021/11/15 06:36:33;;;;;;;54.47;22.33;;;;;;;4.73;100.00;98399.09;5059903;28;20174;-92
2021/11/15 06:38:59;;;;;;;43.60;21.33;;;;;;;4.63;100.00;98384.31;5063542;28;20464;-91
2021/11/15 06:41:25;;;;;;;43.63;20.35;;;;;;;4.79;100.00;98412.19;5054497;28;20032;-78
2021/11/15 06:43:52;;;;;;;126.45;53.88;;;;;;;4.79;100.00;98413.97;5051727;28;20063;-79
2021/11/15 06:46:18;;;;;;;60.35;24.30;;;;;;;4.91;100.00;98411.88;5045180;28;20092;-77
2021/11/15 06:48:44;;;;;;;56.65;25.75;;;;;;;4.96;100.00;98430.28;5075363;28;20046;-78
2021/11/15 06:51:11;;;;;;;42.88;20.08;;;;;;;4.92;100.00;98429.50;5077141;28;20082;-76
2021/11/15 06:53:38;;;;;;;46.20;21.08;;;;;;;4.91;100.00;98425.13;5066169;28;20551;-76
2021/11/15 06:56:04;;;;;;;42.88;21.88;;;;;;;4.98;100.00;98436.44;5057053;28;20516;-78
2021/11/15 06:58:31;;;;;;;51.08;23.15;;;;;;;5.02;100.00;98434.56;5073436;28;20559;-79
2021/11/15 07:00:56;;;;;;;41.53;19.98;;;;;;;5.05;100.00;98434.47;5056820;28;20383;-78
2021/11/15 07:03:22;;;;;;;53.00;23.38;;;;;;;5.01;100.00;98443.44;5055834;28;20033;-77
2021/11/15 07:05:48;;;;;;;46.05;23.58;;;;;;;5.03;100.00;98436.31;5061460;28;20037;-80
2021/11/15 07:08:15;;;;;;;109.70;51.08;;;;;;;5.06;100.00;98438.88;5037205;28;20119;-86
2021/11/15 07:10:41;;;;;;;42.95;21.75;;;;;;;5.03;100.00;98428.34;5050393;28;20108;-90
2021/11/15 07:13:10;;;;;;;50.40;21.30;;;;;;;4.92;100.00;98421.53;5054032;28;20110;-92
2021/11/15 07:15:36;;;;;;;43.40;20.25;;;;;;;4.95;100.00;98420.63;5041673;28;20024;-88
2021/11/15 07:18:02;;;;;;;61.35;28.70;;;;;;;5.07;100.00;98422.94;5049888;28;20548;-87
2021/11/15 07:20:27;;;;;;;48.55;22.33;;;;;;;5.28;100.00;98453.31;5039999;28;20594;-79
2021/11/15 07:22:53;;;;;;;46.45;21.98;;;;;;;5.24;100.00;98441.03;5065957;28;20551;-77
2021/11/15 07:25:22;;;;;;;157.05;74.30;;;;;;;5.12;100.00;98449.31;5042970;28;20082;-90
2021/11/15 07:27:50;;;;;;;66.03;32.17;;;;;;;5.24;100.00;98454.31;5038010;28;20518;-82
2021/11/15 07:30:21;;;;;;;103.47;48.75;;;;;;;5.25;100.00;98448.97;5040957;28;20082;-89
2021/11/15 07:32:50;;;;;;;53.25;24.67;;;;;;;5.32;100.00;98447.03;5052755;28;20055;-89
2021/11/15 07:35:17;;;;;;;53.40;23.90;;;;;;;5.19;100.00;98421.75;5054722;28;20109;-90
2021/11/15 07:37:43;;;;;;;40.30;18.38;;;;;;;5.14;100.00;98439.53;5055477;28;20043;-89
2021/11/15 07:40:11;;;;;;;37.40;18.98;;;;;;;4.95;100.00;98393.22;5043108;28;20031;-90
2021/11/15 07:42:37;;;;;;;43.80;20.23;;;;;;;5.24;100.00;98430.44;5055427;28;20024;-90
2021/11/15 07:45:13;;;;;;;44.47;19.58;;;;;;;5.19;100.00;98440.31;5049910;28;20035;-89
2021/11/15 07:47:41;;;;;;;45.97;21.65;;;;;;;5.01;100.00;98417.81;5051272;28;20021;-89
2021/11/15 07:50:11;;;;;;;43.88;20.15;;;;;;;4.85;100.00;98396.13;5050401;28;20097;-91
2021/11/15 07:52:37;;;;;;;44.97;20.30;;;;;;;5.02;100.00;98429.25;5045812;28;20381;-90
2021/11/15 07:55:09;;;;;;;54.38;26.02;;;;;;;5.00;100.00;98428.44;5055647;28;20050;-90
2021/11/15 07:57:44;;;;;;;60.50;23.77;;;;;;;5.24;100.00;98460.50;5080228;28;20031;-92
2021/11/15 08:00:17;;;;;;;46.30;20.40;;;;;;;5.13;100.00;98422.78;5054591;28;20045;-90
2021/11/15 08:02:44;;;;;;;42.55;21.15;;;;;;;5.40;100.00;98480.41;5045992;28;20024;-93
2021/11/15 08:05:11;;;;;;;49.42;22.17;;;;;;;5.39;100.00;98467.16;5046773;28;20123;-76
2021/11/15 08:07:37;;;;;;;43.78;19.40;;;;;;;5.28;100.00;98459.50;5104043;28;20035;-90
2021/11/15 08:10:14;;;;;;;39.38;17.27;;;;;;;5.25;100.00;98448.09;5051354;28;20107;-91
2021/11/15 08:33:29;;;;;;;38.00;17.80;;;;;;;5.25;100.00;98400.38;4898587;29;20039;-88
2021/11/15 08:35:56;;;;;;;33.22;16.80;;;;;;;5.78;100.00;98466.06;4989081;28;20527;-87
2021/11/15 08:38:37;;;;;;;44.22;19.00;;;;;;;5.65;100.00;98453.19;5045457;28;20506;-90
2021/11/15 08:41:03;;;;;;;35.50;16.38;;;;;;;5.71;100.00;98479.56;5074907;28;20428;-89
2021/11/15 08:43:29;;;;;;;43.42;19.88;;;;;;;5.60;100.00;98461.28;5074127;28;20065;-94
2021/11/15 08:45:54;;;;;;;31.88;15.23;;;;;;;5.68;100.00;98466.38;5059601;28;20063;-82
2021/11/15 08:48:20;;;;;;;33.85;15.07;;;;;;;5.70;100.00;98483.13;5075239;28;20021;-90
2021/11/15 08:50:46;;;;;;;44.00;21.40;;;;;;;6.02;100.00;98500.84;5056601;28;20032;-90
2021/11/15 08:53:12;;;;;;;36.25;16.75;;;;;;;6.17;100.00;98495.09;5048830;28;20424;-84
2021/11/15 08:55:37;;;;;;;37.17;16.88;;;;;;;6.22;100.00;98494.03;5051614;28;20097;-88
2021/11/15 08:58:25;;;;;;;;;;;;;;;;;;;;;
2021/11/15 09:00:51;;;;;;;36.92;18.75;;;;;;;6.77;100.00;98484.38;5069681;28;20048;-86
2021/11/15 09:03:17;;;;;;;32.45;16.60;;;;;;;6.70;100.00;98490.81;5038593;28;20422;-78
2021/11/15 09:05:44;;;;;;;37.22;17.30;;;;;;;6.95;100.00;98486.47;5040013;28;20037;-78
2021/11/15 09:08:11;;;;;;;38.08;16.88;;;;;;;6.91;100.00;98480.38;5042679;28;20105;-91
2021/11/15 09:10:37;;;;;;;39.72;18.83;;;;;;;7.11;100.00;98492.16;5053164;28;20073;-90
2021/11/15 09:13:25;;;;;;;33.28;16.92;;;;;;;7.17;100.00;98486.63;5060363;28;20038;-92
2021/11/15 09:16:12;;;;;;;34.58;18.05;;;;;;;7.28;100.00;98473.81;5055152;28;20031;-91
2021/11/15 09:19:12;;;;;;;31.05;16.13;;;;;;;6.71;100.00;98420.75;5068550;28;20049;-92
2021/11/15 09:22:25;;;;;;;53.35;26.90;;;;;;;7.18;100.00;98491.88;5042534;28;20024;-92
2021/11/15 09:25:47;;;;;;;48.47;24.83;;;;;;;7.18;97.57;98494.53;5066935;28;20032;-92
2021/11/15 09:28:45;;;;;;;41.47;22.00;;;;;;;7.26;96.95;98499.63;5067628;28;20100;-92
2021/11/15 09:34:24;;;;;;;;;;;;;;;;;;;;;
2021/11/15 09:37:02;;;;;;;43.28;19.10;;;;;;;6.09;100.00;98465.25;5084915;28;20607;-89
2021/11/15 09:39:47;;;;;;;38.95;18.58;;;;;;;5.69;100.00;98426.50;5060664;28;20040;-91
2021/11/15 09:43:05;;;;;;;;;;;;;;;;;;;;;
2021/11/15 09:45:53;;;;;;;47.90;23.63;;;;;;;6.46;100.00;98503.94;5087251;28;20096;-89
2021/11/15 09:48:43;;;;;;;38.67;19.80;;;;;;;6.59;100.00;98495.56;5045345;28;20079;-89
2021/11/15 09:51:53;;;;;;;33.55;16.75;;;;;;;6.20;100.00;98442.75;5080281;28;20507;-90
2021/11/15 09:54:30;;;;;;;;;;;;;;;;;;;;;
2021/11/15 10:00:44;;;;;;;;;;;;;;;;;;;;;
2021/11/15 10:03:13;;;;;;;37.38;17.58;;;;;;;6.22;100.00;98474.56;4992741;28;20525;-90
2021/11/15 10:05:38;;;;;;;36.63;16.90;;;;;;;6.15;100.00;98463.28;5045390;28;20039;-90
2021/11/15 10:08:09;;;;;;;35.75;17.90;;;;;;;6.19;100.00;98464.91;5048504;28;20032;-90
2021/11/15 10:10:57;;;;;;;31.85;15.45;;;;;;;6.19;100.00;98509.19;5050574;28;20063;-91
2021/11/15 10:13:31;;;;;;;35.28;17.27;;;;;;;6.10;100.00;98498.84;5049766;28;20488;-90
2021/11/15 10:16:06;;;;;;;34.38;16.90;;;;;;;5.92;100.00;98458.63;5050532;28;20055;-90
2021/11/15 10:18:39;;;;;;;35.88;17.85;;;;;;;6.10;100.00;98504.16;5066679;28;20028;-89
2021/11/15 10:21:14;;;;;;;41.25;18.00;;;;;;;5.97;100.00;98487.69;5048955;28;20115;-90
2021/11/15 10:23:49;;;;;;;36.95;17.85;;;;;;;6.10;100.00;98493.53;5048772;28;20032;-89
2021/11/15 10:26:27;;;;;;;40.28;19.83;;;;;;;6.05;100.00;98484.84;5073390;28;20388;-90
2021/11/15 10:28:56;;;;;;;56.53;27.02;;;;;;;5.86;100.00;98466.78;5050831;28;20039;-79
2021/11/15 10:31:31;;;;;;;37.47;19.73;;;;;;;6.27;100.00;98505.41;5064135;28;20020;-79
2021/11/15 10:33:57;;;;;;;41.15;20.52;;;;;;;6.47;100.00;98511.00;5064793;28;20081;-79
2021/11/15 10:36:46;;;;;;;40.05;18.92;;;;;;;6.77;100.00;98506.50;5048323;28;20051;-81
2021/11/15 10:39:12;;;;;;;33.53;18.15;;;;;;;6.90;99.64;98505.22;5048115;28;20048;-80
2021/11/15 10:41:37;;;;;;;35.70;16.73;;;;;;;7.04;98.34;98502.97;5061901;28;20055;-80
2021/11/15 10:44:08;;;;;;;41.83;19.23;;;;;;;7.12;96.29;98513.38;5042667;28;20032;-84
2021/11/15 10:46:36;;;;;;;49.13;25.90;;;;;;;7.24;96.16;98520.06;5039584;28;20518;-77
2021/11/15 10:49:08;;;;;;;35.88;18.70;;;;;;;7.16;95.17;98508.81;5062099;28;20093;-78
2021/11/15 10:51:51;;;;;;;37.45;19.55;;;;;;;7.18;94.58;98506.97;5064311;28;20103;-77
2021/11/15 10:54:43;;;;;;;;;;;;;;;7.30;93.22;98511.88;5037755;28;20089;-76
2021/11/15 10:57:19;;;;;;;39.63;20.52;;;;;;;7.11;94.61;98510.78;5042071;28;19966;-88
2021/11/15 10:59:45;;;;;;;41.53;20.20;;;;;;;7.15;94.61;98493.78;5054152;28;20024;-90
2021/11/15 11:02:27;;;;;;;33.33;18.35;;;;;;;7.26;93.38;98507.63;5039363;28;20055;-89
2021/11/15 11:05:07;;;;;;;36.05;16.10;;;;;;;7.23;94.48;98518.34;5056045;28;20032;-90
2021/11/15 11:07:35;;;;;;;30.98;15.38;;;;;;;6.95;95.78;98510.41;5071900;28;20042;-90
2021/11/15 11:10:05;;;;;;;52.97;22.42;;;;;;;6.90;96.13;98515.84;5044659;28;20488;-90
2021/11/15 11:12:35;;;;;;;46.60;23.10;;;;;;;7.01;96.31;98515.53;5056072;28;20024;-90
2021/11/15 11:15:28;;;;;;;35.00;17.50;;;;;;;6.98;95.67;98521.78;5057117;28;20063;-89
2021/11/15 11:18:01;;;;;;;45.38;22.23;;;;;;;6.89;97.03;98523.91;5041809;28;20032;-89
2021/11/15 11:23:23;;;;;;;43.30;23.45;;;;;;;6.92;96.61;98507.84;5077432;28;20032;-91
2021/11/15 11:25:54;;;;;;;34.53;15.52;;;;;;;6.93;94.61;98488.28;5049380;28;20123;-90
2021/11/15 11:28:32;;;;;;;40.97;20.08;;;;;;;7.19;95.57;98514.91;5052586;28;20115;-89
2021/11/15 11:30:59;;;;;;;34.42;16.95;;;;;;;7.25;94.88;98521.81;5049899;28;20102;-89
2021/11/15 11:33:30;;;;;;;29.45;16.45;;;;;;;7.32;92.87;98504.75;5060860;28;20024;-89
2021/11/15 11:36:00;;;;;;;38.03;17.42;;;;;;;7.27;93.09;98501.34;5050111;28;20041;-89
2021/11/15 11:38:28;;;;;;;35.67;18.42;;;;;;;7.36;92.74;98520.53;5051819;28;20052;-88
2021/11/15 11:40:54;;;;;;;27.92;14.93;;;;;;;7.32;93.30;98513.56;5049309;28;20077;-90
2021/11/15 11:43:20;;;;;;;33.63;15.80;;;;;;;7.36;92.65;98525.88;5070001;28;20017;-87
2021/11/15 11:45:47;;;;;;;31.05;17.75;;;;;;;7.27;93.68;98515.53;5050822;28;20024;-89
2021/11/15 11:48:14;;;;;;;36.45;18.25;;;;;;;7.44;93.39;98512.31;5044973;28;20035;-90
2021/11/15 11:50:43;;;;;;;36.83;19.27;;;;;;;7.48;91.97;98509.47;5053555;28;20048;-90
2021/11/15 11:53:11;;;;;;;38.63;18.48;;;;;;;7.33;92.22;98491.38;5068537;28;20028;-89
2021/11/15 11:55:39;;;;;;;34.30;17.73;;;;;;;7.43;91.08;98499.91;5051144;28;20020;-89
2021/11/15 11:58:24;;;;;;;38.50;20.35;;;;;;;7.64;91.12;98526.66;5057405;28;20057;-89
2021/11/15 12:01:14;;;;;;;39.17;19.92;;;;;;;7.27;91.10;98480.94;5057924;28;20067;-88
2021/11/15 12:03:40;;;;;;;44.55;19.75;;;;;;;7.18;93.26;98520.28;5075801;28;20024;-89
2021/11/15 12:06:28;;;;;;;39.85;19.48;;;;;;;7.14;95.03;98527.47;5060304;28;20094;-89
2021/11/15 12:08:55;;;;;;;36.35;18.90;;;;;;;7.04;93.58;98513.59;5053317;28;20024;-89
2021/11/15 12:11:26;;;;;;;44.10;21.73;;;;;;;7.18;93.35;98537.13;5051656;28;20115;-88
2021/11/15 12:13:53;;;;;;;39.63;19.83;;;;;;;6.92;94.83;98542.41;5045995;28;20500;-87